Latest Weather Forecast - Monday 13th May 2019 (6pm)

Forecast Period:  6:00 pm - 13th May, 2019 to 6:00 am - 14th May, 2019  
Synopsis: The Atlantic High Pressure System is the dominant feature
Forecast:

Fair to occasionally cloudy, slightly hazy and breezy with a few brief scattered showers.

Weather 
Advisory/Warning:
None
Winds: ENE to E at 20 to 40 km/h (12 to 25 mph)
Sea Conditions: Moderate in open water; with swells 1.5 m to 2.0 m
Marine 
Advisory/Warning:
None.
Upcoming Tides:
High: 12:42 am  2:15 pm  
Low: 7:52 am  9:02 pm  

Aviation WX

[Source: ADDS]
METAR
TVSA 271100Z 09005KT 040V120 9999 SCT020 28/24 Q1014 =
TVSA 271125Z 2712/2812 11006KT 9999 SCT018
TAF
TVSA 271125Z 2712/2812 11006KT 9999 SCT018 =
SR / SS: 09:36 / 22:26 UTC (Sunrise Sunset 2019-05-27)